createdAt,value
2022-09-26T00:02:30.725Z,45.2
2022-09-26T00:07:48.702Z,45.7
2022-09-26T00:13:07.165Z,44.9
2022-09-26T00:18:25.655Z,45.6
2022-09-26T00:23:44.268Z,45
2022-09-26T00:29:02.720Z,44.9
2022-09-26T00:34:20.936Z,45.4
2022-09-26T00:39:39.178Z,45.6
2022-09-26T00:44:57.367Z,45.5
2022-09-26T00:50:15.859Z,45.5
2022-09-26T00:55:34.377Z,45.5
2022-09-26T01:00:52.758Z,45.5
2022-09-26T01:06:11.332Z,45.7
2022-09-26T01:11:30.191Z,44.7
2022-09-26T01:16:48.671Z,44.6
2022-09-26T01:22:07.528Z,45.6
2022-09-26T01:27:26.054Z,45.6
2022-09-26T01:32:44.242Z,45.6
2022-09-26T01:38:02.452Z,45.3
2022-09-26T01:43:20.972Z,45.2
2022-09-26T01:48:39.436Z,44.9
2022-09-26T01:53:57.925Z,44.8
2022-09-26T01:59:16.346Z,45.6
2022-09-26T02:04:34.890Z,44.9
2022-09-26T02:09:53.651Z,45.8
2022-09-26T02:15:11.892Z,44.9
2022-09-26T02:20:30.079Z,45.6
2022-09-26T02:25:48.023Z,44.8
2022-09-26T02:31:06.357Z,45
2022-09-26T02:36:24.814Z,45
2022-09-26T02:41:43.023Z,44.9
2022-09-26T02:47:01.816Z,45.6
2022-09-26T02:52:19.998Z,44.9
2022-09-26T02:57:38.222Z,44.9
2022-09-26T03:02:56.167Z,45.2
2022-09-26T03:08:14.917Z,45
2022-09-26T03:13:33.418Z,45.7
2022-09-26T03:18:51.692Z,44.9
2022-09-26T03:24:09.604Z,45.5
2022-09-26T03:29:28.365Z,45.8
2022-09-26T03:34:46.882Z,45.3
2022-09-26T03:40:05.342Z,44.7
2022-09-26T03:45:23.987Z,45.9
2022-09-26T03:50:42.040Z,44.9
2022-09-26T03:56:00.510Z,45.6
2022-09-26T04:01:19.085Z,45
2022-09-26T04:06:37.572Z,45.7
2022-09-26T04:11:56.402Z,45.6
2022-09-26T04:17:14.604Z,45.7
2022-09-26T04:22:33.402Z,45
2022-09-26T04:27:51.860Z,46
2022-09-26T04:33:10.075Z,46.1
2022-09-26T04:38:29.007Z,41.2
2022-09-26T04:43:47.476Z,41
2022-09-26T04:49:06.162Z,41
2022-09-26T04:54:24.374Z,40.5
2022-09-26T04:59:42.836Z,41.3
2022-09-26T05:05:01.619Z,40.3
2022-09-26T05:10:20.216Z,41.4
2022-09-26T05:15:38.390Z,42.3
2022-09-26T05:20:56.591Z,42.8
2022-09-26T05:26:14.848Z,43.3
2022-09-26T05:31:33.618Z,43.8
2022-09-26T05:36:52.088Z,43.5
2022-09-26T05:41:55.040Z,44
2022-09-26T05:47:14.242Z,43.7
2022-09-26T05:52:32.449Z,44.6
2022-09-26T05:57:50.794Z,45
2022-09-26T06:03:09.250Z,44.4
2022-09-26T06:08:28.005Z,44.8
2022-09-26T06:13:46.579Z,44.6
2022-09-26T06:19:04.758Z,44.8
2022-09-26T06:24:23.252Z,45.1
2022-09-26T06:29:41.492Z,45
2022-09-26T06:34:59.946Z,45.5
2022-09-26T06:40:18.583Z,44.8
2022-09-26T06:45:36.559Z,44.6
2022-09-26T06:50:55.027Z,44.5
2022-09-26T06:56:13.528Z,41.9
2022-09-26T07:01:35.824Z,40
2022-09-26T07:06:53.911Z,38.8
2022-09-26T07:12:16.897Z,38.7
2022-09-26T07:17:35.667Z,39.9
2022-09-26T07:22:54.034Z,38.5
2022-09-26T07:28:12.232Z,39.4
2022-09-26T07:33:30.426Z,37.4
2022-09-26T07:38:48.716Z,37.4
2022-09-26T07:45:24.498Z,38.1
2022-09-26T07:50:46.352Z,40.1
2022-09-26T07:56:05.145Z,39.8
2022-09-26T08:01:23.847Z,40.5
2022-09-26T08:06:42.368Z,40.6
2022-09-26T08:12:00.612Z,40
2022-09-26T08:17:19.071Z,40.7
2022-09-26T08:22:37.837Z,41.5
2022-09-26T08:27:56.635Z,41.6
2022-09-26T08:33:15.365Z,41.7
2022-09-26T08:38:34.123Z,41.6
2022-09-26T08:43:52.413Z,42
2022-09-26T08:49:10.614Z,41.2
2022-09-26T08:54:29.094Z,41.7
2022-09-26T08:59:47.321Z,41.6
2022-09-26T09:05:06.062Z,41.7
2022-09-26T09:10:24.554Z,41.7
2022-09-26T09:15:43.743Z,42.5
2022-09-26T09:21:03.159Z,42.7
2022-09-26T09:33:09.551Z,42.3
2022-09-26T09:38:28.023Z,42.6
2022-09-26T09:43:46.501Z,42.5
2022-09-26T09:49:05.010Z,42.7
2022-09-26T09:54:23.468Z,42.5
2022-09-26T09:59:41.943Z,41.5
2022-09-26T10:05:00.818Z,42
2022-09-26T10:10:18.999Z,41.9
2022-09-26T10:15:37.945Z,42
2022-09-26T10:20:56.264Z,42.5
2022-09-26T10:26:14.737Z,42.9
2022-09-26T10:31:33.186Z,42.6
2022-09-26T10:36:51.676Z,42.4
2022-09-26T10:42:10.421Z,42.3
2022-09-26T10:47:29.194Z,42.2
2022-09-26T10:52:47.706Z,43.1
2022-09-26T10:58:15.249Z,43
2022-09-26T11:03:33.930Z,42.9
2022-09-26T11:08:52.344Z,42.8
2022-09-26T11:14:10.919Z,43
2022-09-26T11:19:29.140Z,43
2022-09-26T11:24:47.925Z,42.3
2022-09-26T11:30:06.372Z,42.3
2022-09-26T11:35:24.573Z,42.3
2022-09-26T11:40:43.042Z,42.7
2022-09-26T11:46:01.721Z,42.4
2022-09-26T11:51:19.910Z,43.1
2022-09-26T11:56:38.468Z,42.8
2022-09-26T12:01:57.211Z,42.7
2022-09-26T12:07:15.420Z,42.9
2022-09-26T12:12:40.937Z,42.8
2022-09-26T12:17:59.688Z,43
2022-09-26T12:23:18.482Z,43.6
2022-09-26T12:28:36.709Z,43.5
2022-09-26T12:33:55.169Z,43.4
2022-09-26T12:39:13.851Z,43.5
2022-09-26T12:44:32.229Z,44.2
2022-09-26T12:49:50.404Z,43.4
2022-09-26T12:55:09.169Z,44
2022-09-26T13:00:27.419Z,43.5
2022-09-26T13:05:46.157Z,44.1
2022-09-26T13:11:04.078Z,43.3
2022-09-26T13:16:22.878Z,43.4
2022-09-26T13:21:41.064Z,44.4
2022-09-26T13:26:59.816Z,44.6
2022-09-26T13:32:18.316Z,43.9
2022-09-26T13:37:36.767Z,44.8
2022-09-26T13:43:03.304Z,45.3
2022-09-26T13:48:21.331Z,45.2
2022-09-26T13:53:39.231Z,45.2
2022-09-26T13:58:57.713Z,45.3
2022-09-26T14:04:16.054Z,44.5
2022-09-26T14:09:34.876Z,45.2
2022-09-26T14:14:53.633Z,45.3
2022-09-26T14:20:12.151Z,44.5
2022-09-26T14:25:30.600Z,44.3
2022-09-26T14:30:49.515Z,44.8
2022-09-26T14:36:07.758Z,44.9
2022-09-26T14:41:26.498Z,44.1
2022-09-26T14:46:45.058Z,44
2022-09-26T14:52:11.483Z,44.2
2022-09-26T14:57:30.211Z,44.6
2022-09-26T15:02:48.263Z,43.8
2022-09-26T15:08:06.485Z,43.6
2022-09-26T15:13:25.243Z,44.8
2022-09-26T15:18:43.723Z,43.9
2022-09-26T15:24:01.956Z,44.5
2022-09-26T15:29:20.136Z,44.1
2022-09-26T15:34:38.330Z,45
2022-09-26T15:39:56.849Z,44.8
2022-09-26T15:45:15.035Z,43.8
2022-09-26T15:50:32.958Z,43.8
2022-09-26T15:55:51.142Z,44.9
2022-09-26T16:01:09.582Z,45
2022-09-26T16:06:27.748Z,44.4
2022-09-26T16:11:46.056Z,44.2
2022-09-26T16:17:04.483Z,44.3
2022-09-26T16:22:22.693Z,44.3
2022-09-26T16:27:41.481Z,45.2
2022-09-26T16:32:59.919Z,44.5
2022-09-26T16:38:18.449Z,44.7
2022-09-26T16:43:37.207Z,45.1
2022-09-26T16:48:55.671Z,45.5
2022-09-26T16:54:14.147Z,45.3
2022-09-26T16:59:32.431Z,45
2022-09-26T17:04:50.588Z,45
2022-09-26T17:10:09.349Z,45.6
2022-09-26T17:15:28.218Z,45.6
2022-09-26T17:20:46.761Z,46
2022-09-26T17:26:04.959Z,45.8
2022-09-26T17:31:09.105Z,45
2022-09-26T17:36:27.605Z,43
2022-09-26T17:41:46.039Z,44.4
2022-09-26T17:47:04.236Z,44.8
2022-09-26T17:52:07.064Z,44.1
2022-09-26T17:57:31.076Z,44.2
2022-09-26T18:02:49.733Z,44.7
2022-09-26T18:08:08.451Z,45.1
2022-09-26T18:13:26.741Z,44.7
2022-09-26T18:18:45.605Z,45
2022-09-26T18:24:04.403Z,44.8
2022-09-26T18:29:23.359Z,44.9
2022-09-26T18:34:42.021Z,46.1
2022-09-26T18:40:04.966Z,46.1
2022-09-26T18:45:23.479Z,46.1
2022-09-26T18:50:42.056Z,45.6
2022-09-26T18:56:00.845Z,45.7
2022-09-26T19:01:19.598Z,46.1
2022-09-26T19:06:38.046Z,45.1
2022-09-26T19:11:56.910Z,46.5
2022-09-26T19:17:15.506Z,46.1
2022-09-26T19:22:34.295Z,47
2022-09-26T19:27:53.042Z,45.9
2022-09-26T19:33:11.793Z,46.6
2022-09-26T19:38:30.042Z,46.6
2022-09-26T19:43:48.772Z,45.9
2022-09-26T19:49:07.625Z,46.4
2022-09-26T19:54:26.108Z,45.7
2022-09-26T19:59:44.276Z,47.3
2022-09-26T20:05:03.059Z,46.3
2022-09-26T20:10:21.303Z,46.6
2022-09-26T20:15:39.465Z,46.3
2022-09-26T20:20:57.687Z,46.5
2022-09-26T20:26:16.476Z,46.6
2022-09-26T20:31:34.930Z,46.1
2022-09-26T20:36:53.414Z,46.7
2022-09-26T20:42:11.678Z,46.3
2022-09-26T20:47:30.143Z,46.3
2022-09-26T20:52:48.349Z,46.3
2022-09-26T20:58:06.874Z,46.2
2022-09-26T21:03:25.332Z,47.1
2022-09-26T21:08:43.825Z,47.3
2022-09-26T21:25:03.384Z,47.3
2022-09-26T21:30:21.281Z,47.4
2022-09-26T21:35:39.501Z,46.5
2022-09-26T21:40:58.158Z,46.7
2022-09-26T21:46:16.217Z,46.7
2022-09-26T21:51:34.769Z,46.9
2022-09-26T21:56:53.295Z,47.5
2022-09-26T22:02:11.656Z,47.4
2022-09-26T22:07:29.853Z,47
2022-09-26T22:12:48.084Z,47
2022-09-26T22:18:06.553Z,47.1
2022-09-26T22:23:25.325Z,47.7
2022-09-26T22:28:43.557Z,46.9
2022-09-26T22:34:02.292Z,48.3
2022-09-26T22:39:20.769Z,48
2022-09-26T22:44:39.006Z,49
2022-09-26T22:49:57.550Z,48.3
2022-09-26T22:55:16.089Z,47.6
2022-09-26T23:00:34.332Z,48.3
2022-09-26T23:05:53.084Z,48.4
2022-09-26T23:11:11.581Z,48.7
2022-09-26T23:16:30.052Z,47.7
2022-09-26T23:21:48.604Z,48
2022-09-26T23:27:07.375Z,47.9
2022-09-26T23:32:26.161Z,48.4
2022-09-26T23:37:44.638Z,47.5
2022-09-26T23:43:03.136Z,47.3
2022-09-26T23:48:21.667Z,48.7
2022-09-26T23:53:24.779Z,48.4
2022-09-26T23:58:43.557Z,48.2
